General Aviation Weather

Text Reports

Enter one or more of the following location identifiers separated by a space:

Zip Code, Four-Character ICAO or Three-Character IATA airport codes.

METAR - Aviation Routine Weather Report
KCTZ - Clinton, North Carolina
Updated at 3:55 PM GMT on September 19, 2014 (11:55 AM EDT):
METAR KCTZ 191555Z AUTO 07004KT 10SM CLR 26/16 A3016 RMK AO2 T02590155
TAF - Terminal Area Forecast
KCTZ - Clinton, North Carolina
Updated at 3:55 PM GMT on September 19, 2014 (11:55 AM EDT):
No TAF is currently available for this location.
Decoded:
No decoded TAF is available.
PIREP - Pilot Weather Report
KCTZ - Clinton, North Carolina
Updated at 3:55 PM GMT on September 19, 2014 (11:55 AM EDT):
No PIREP is currently available for this location.
AIRMET - Airmens Meteorological Information
KCTZ - Clinton, North Carolina
Updated at 3:55 PM GMT on September 19, 2014 (11:55 AM EDT):
No AIRMET is currently available for this location.
SIGMET - Significant Meteorological Information
KCTZ - Clinton, North Carolina
Updated at 3:55 PM GMT on September 19, 2014 (11:55 AM EDT):
No SIGMET is currently available for this location.
NOTAM - Notice to Airmen
KCTZ - Clinton, North Carolina
Updated at 3:55 PM GMT on September 19, 2014 (11:55 AM EDT):
No NOTAM is currently available for this location.
Forecast Area
KCTZ - Clinton, North Carolina
Updated at 3:55 PM GMT on September 19, 2014 (11:55 AM EDT):
No NOTAM is currently available for this location.
Aviation Weather Maps